createdAt,value
2018-04-29T00:02:19.520Z,9.43
2018-04-29T00:04:46.991Z,10.40
2018-04-29T00:07:14.472Z,9.23
2018-04-29T00:09:41.913Z,9.27
2018-04-29T00:12:09.363Z,9.07
2018-04-29T00:14:37.576Z,9.47
2018-04-29T00:17:05.030Z,9.30
2018-04-29T00:19:32.486Z,9.43
2018-04-29T00:21:59.935Z,9.07
2018-04-29T00:24:27.394Z,9.23
2018-04-29T00:26:54.834Z,8.50
2018-04-29T00:29:22.289Z,9.20
2018-04-29T00:31:49.750Z,8.07
2018-04-29T00:34:17.198Z,8.90
2018-04-29T00:36:44.653Z,8.23
2018-04-29T00:39:12.102Z,8.40
2018-04-29T00:41:39.554Z,8.13
2018-04-29T00:44:07.002Z,9.23
2018-04-29T00:46:34.465Z,8.57
2018-04-29T00:49:01.915Z,7.43
2018-04-29T00:51:41.433Z,8.00
2018-04-29T00:54:09.657Z,7.97
2018-04-29T00:56:37.102Z,7.70
2018-04-29T00:59:04.617Z,8.00
2018-04-29T01:01:32.042Z,7.57
2018-04-29T01:03:59.491Z,7.80
2018-04-29T01:06:26.950Z,8.03
2018-04-29T01:08:54.402Z,7.97
2018-04-29T01:11:21.851Z,7.43
2018-04-29T01:13:49.301Z,7.23
2018-04-29T01:16:16.746Z,7.93
2018-04-29T01:18:44.218Z,7.40
2018-04-29T01:21:11.665Z,7.47
2018-04-29T01:23:39.125Z,7.60
2018-04-29T01:26:06.557Z,7.50
2018-04-29T01:28:34.020Z,7.50
2018-04-29T01:31:01.468Z,7.80
2018-04-29T01:33:28.918Z,7.90
2018-04-29T01:35:57.130Z,7.60
2018-04-29T01:38:24.585Z,7.93
2018-04-29T01:40:52.033Z,7.33
2018-04-29T01:43:19.489Z,7.77
2018-04-29T01:45:46.945Z,7.17
2018-04-29T01:48:14.392Z,7.40
2018-04-29T01:50:41.846Z,7.67
2018-04-29T01:53:09.288Z,8.03
2018-04-29T01:55:36.741Z,7.40
2018-04-29T01:58:04.961Z,7.43
2018-04-29T02:00:32.403Z,7.97
2018-04-29T02:02:59.859Z,7.63
2018-04-29T02:05:27.311Z,7.30
2018-04-29T02:07:54.765Z,7.30
2018-04-29T02:10:22.217Z,7.77
2018-04-29T02:12:49.674Z,7.93
2018-04-29T02:15:17.116Z,7.70
2018-04-29T02:17:45.337Z,7.73
2018-04-29T02:20:12.795Z,7.60
2018-04-29T02:22:40.240Z,7.13
2018-04-29T02:25:07.685Z,7.57
2018-04-29T02:27:35.133Z,7.20
2018-04-29T02:30:02.585Z,7.30
2018-04-29T02:32:30.058Z,6.67
2018-04-29T02:34:57.508Z,7.63
2018-04-29T02:37:24.938Z,6.97
2018-04-29T02:39:53.158Z,7.23
2018-04-29T02:42:20.698Z,7.57
2018-04-29T02:44:48.149Z,6.33
2018-04-29T02:47:15.606Z,7.30
2018-04-29T02:49:43.052Z,6.90
2018-04-29T02:52:11.274Z,7.17
2018-04-29T02:54:38.726Z,6.77
2018-04-29T02:57:06.170Z,7.33
2018-04-29T02:59:33.620Z,7.40
2018-04-29T03:02:01.082Z,6.80
2018-04-29T03:04:28.541Z,7.27
2018-04-29T03:06:55.986Z,7.40
2018-04-29T03:09:23.439Z,6.77
2018-04-29T03:11:50.890Z,7.40
2018-04-29T03:14:18.346Z,7.07
2018-04-29T03:16:45.792Z,7.30
2018-04-29T03:19:14.010Z,6.93
2018-04-29T03:21:41.456Z,6.93
2018-04-29T03:24:08.922Z,7.00
2018-04-29T03:26:36.382Z,7.00
2018-04-29T03:29:03.829Z,6.57
2018-04-29T03:31:31.282Z,7.00
2018-04-29T03:33:58.721Z,7.00
2018-04-29T03:36:26.183Z,7.30
2018-04-29T03:38:53.632Z,7.37
2018-04-29T03:41:21.078Z,6.90
2018-04-29T03:43:49.310Z,6.80
2018-04-29T03:46:16.762Z,7.13
2018-04-29T03:48:44.213Z,7.20
2018-04-29T03:51:11.668Z,7.30
2018-04-29T03:53:39.116Z,6.97
2018-04-29T03:56:07.038Z,7.50
2018-04-29T03:58:46.286Z,6.57
2018-04-29T04:01:26.328Z,6.80
2018-04-29T04:04:00.017Z,6.97
2018-04-29T04:06:27.465Z,7.10
2018-04-29T04:08:54.913Z,6.73
2018-04-29T04:11:22.366Z,6.83
2018-04-29T04:13:49.822Z,6.97
2018-04-29T04:16:17.270Z,6.80
2018-04-29T04:18:44.716Z,7.10
2018-04-29T04:21:12.164Z,6.80
2018-04-29T04:23:39.727Z,6.83
2018-04-29T04:26:07.097Z,7.23
2018-04-29T04:28:35.337Z,6.43
2018-04-29T04:31:02.811Z,6.20
2018-04-29T04:33:30.270Z,6.73
2018-04-29T04:35:57.725Z,6.80
2018-04-29T04:38:25.184Z,6.97
2018-04-29T04:40:52.643Z,7.10
2018-04-29T04:43:20.103Z,7.20
2018-04-29T04:45:47.555Z,7.00
2018-04-29T04:48:15.006Z,7.07
2018-04-29T04:50:42.534Z,7.43
2018-04-29T04:53:09.914Z,7.07
2018-04-29T04:55:37.365Z,7.20
2018-04-29T04:58:04.861Z,7.07
2018-04-29T05:00:32.270Z,7.40
2018-04-29T05:02:59.723Z,7.27
2018-04-29T05:05:27.935Z,7.10
2018-04-29T05:07:55.385Z,7.50
2018-04-29T05:10:22.841Z,7.53
2018-04-29T05:12:50.297Z,7.23
2018-04-29T05:15:17.746Z,6.80
2018-04-29T05:17:45.189Z,7.37
2018-04-29T05:20:12.655Z,7.50
2018-04-29T05:22:40.122Z,6.80
2018-04-29T05:25:07.571Z,6.73
2018-04-29T05:27:35.013Z,7.20
2018-04-29T05:30:02.470Z,6.77
2018-04-29T05:32:29.933Z,6.80
2018-04-29T05:34:57.386Z,6.93
2018-04-29T05:37:24.833Z,6.77
2018-04-29T05:39:53.045Z,6.57
2018-04-29T05:42:20.487Z,7.10
2018-04-29T05:44:47.938Z,6.93
2018-04-29T05:47:15.389Z,6.60
2018-04-29T05:49:42.837Z,6.80
2018-04-29T05:52:11.058Z,7.20
2018-04-29T05:54:38.507Z,6.73
2018-04-29T05:57:05.969Z,6.77
2018-04-29T05:59:33.405Z,7.33
2018-04-29T06:02:00.865Z,6.50
2018-04-29T06:04:28.334Z,6.77
2018-04-29T06:06:55.774Z,7.00
2018-04-29T06:09:23.231Z,6.93
2018-04-29T06:11:50.672Z,6.80
2018-04-29T06:14:18.118Z,6.87
2018-04-29T06:16:46.342Z,6.37
2018-04-29T06:19:13.794Z,6.10
2018-04-29T06:21:42.081Z,6.27
2018-04-29T06:24:09.538Z,6.47
2018-04-29T06:26:36.998Z,6.77
2018-04-29T06:29:04.449Z,6.70
2018-04-29T06:31:31.897Z,6.63
2018-04-29T06:33:59.361Z,6.57
2018-04-29T06:36:26.813Z,7.20
2018-04-29T06:38:54.265Z,6.47
2018-04-29T06:41:21.725Z,6.50
2018-04-29T06:43:49.169Z,6.60
2018-04-29T06:46:16.631Z,6.17
2018-04-29T06:48:44.076Z,6.50
2018-04-29T06:51:11.553Z,6.50
2018-04-29T06:53:39.005Z,6.67
2018-04-29T06:56:06.440Z,6.80
2018-04-29T06:58:33.912Z,6.83
2018-04-29T07:01:01.383Z,6.40
2018-04-29T07:03:28.841Z,6.40
2018-04-29T07:05:56.322Z,6.37
2018-04-29T07:08:23.790Z,6.50
2018-04-29T07:10:51.249Z,6.53
2018-04-29T07:13:18.699Z,6.30
2018-04-29T07:15:46.166Z,6.87
2018-04-29T07:18:13.621Z,6.77
2018-04-29T07:20:41.075Z,6.33
2018-04-29T07:23:08.525Z,6.80
2018-04-29T07:25:35.974Z,6.47
2018-04-29T07:28:03.429Z,5.53
2018-04-29T07:30:30.875Z,6.23
2018-04-29T07:32:58.334Z,6.63
2018-04-29T07:35:25.774Z,6.63
2018-04-29T07:37:53.236Z,6.63
2018-04-29T07:40:20.694Z,6.63
2018-04-29T07:42:48.147Z,6.73
2018-04-29T07:45:15.586Z,6.77
2018-04-29T07:47:43.048Z,6.50
2018-04-29T07:50:10.498Z,6.27
2018-04-29T07:52:38.045Z,5.90
2018-04-29T07:55:05.413Z,6.13
2018-04-29T07:57:32.859Z,6.27
2018-04-29T08:00:00.308Z,6.07
2018-04-29T08:02:28.518Z,6.60
2018-04-29T08:04:55.993Z,6.43
2018-04-29T08:07:23.429Z,6.47
2018-04-29T08:09:50.876Z,6.50
2018-04-29T08:12:18.346Z,6.07
2018-04-29T08:14:45.798Z,5.87
2018-04-29T08:17:13.249Z,6.10
2018-04-29T08:19:40.693Z,6.20
2018-04-29T08:22:08.150Z,6.00
2018-04-29T08:24:35.590Z,5.93
2018-04-29T08:27:03.809Z,5.87
2018-04-29T08:29:31.245Z,5.70
2018-04-29T08:31:58.705Z,5.90
2018-04-29T08:34:26.141Z,5.60
2018-04-29T08:36:54.361Z,5.97
2018-04-29T08:39:21.818Z,5.70
2018-04-29T08:41:49.299Z,5.53
2018-04-29T08:44:16.734Z,5.27
2018-04-29T08:46:44.186Z,5.37
2018-04-29T08:49:11.645Z,5.20
2018-04-29T08:51:39.085Z,5.47
2018-04-29T08:54:06.548Z,4.97
2018-04-29T08:56:33.990Z,4.83
2018-04-29T08:59:01.450Z,4.83
2018-04-29T09:01:28.906Z,4.77
2018-04-29T09:03:56.480Z,4.80
2018-04-29T09:06:23.827Z,4.47
2018-04-29T09:08:51.277Z,4.43
2018-04-29T09:11:18.733Z,4.83
2018-04-29T09:13:46.165Z,4.13
2018-04-29T09:16:14.385Z,4.53
2018-04-29T09:18:41.837Z,3.80
2018-04-29T09:21:09.287Z,4.00
2018-04-29T09:23:36.764Z,4.80
2018-04-29T09:26:04.206Z,4.27
2018-04-29T09:28:31.666Z,3.87
2018-04-29T09:30:59.109Z,3.97
2018-04-29T09:33:26.559Z,4.13
2018-04-29T09:35:54.007Z,4.20
2018-04-29T09:38:21.466Z,3.90
2018-04-29T09:40:49.531Z,4.00
2018-04-29T09:43:17.053Z,4.30
2018-04-29T09:45:44.459Z,4.00
2018-04-29T09:48:11.915Z,4.33
2018-04-29T09:50:39.369Z,3.80
2018-04-29T09:53:06.817Z,4.33
2018-04-29T09:55:35.036Z,4.10
2018-04-29T09:58:02.486Z,3.63
2018-04-29T10:00:29.949Z,3.90
2018-04-29T10:03:03.106Z,3.93
2018-04-29T10:05:30.564Z,4.00
2018-04-29T10:07:58.017Z,4.03
2018-04-29T10:10:25.453Z,4.50
2018-04-29T10:12:53.675Z,3.93
2018-04-29T10:15:21.120Z,4.50
2018-04-29T10:17:48.575Z,4.07
2018-04-29T10:20:16.026Z,3.83
2018-04-29T10:22:43.490Z,4.00
2018-04-29T10:25:10.946Z,4.40
2018-04-29T10:27:38.385Z,3.87
2018-04-29T10:30:05.853Z,4.17
2018-04-29T10:32:33.298Z,4.20
2018-04-29T10:35:00.770Z,4.30
2018-04-29T10:37:28.225Z,4.10
2018-04-29T10:39:55.670Z,3.93
2018-04-29T10:42:23.115Z,4.33
2018-04-29T10:44:51.326Z,4.07
2018-04-29T10:47:18.792Z,4.20
2018-04-29T10:49:46.232Z,4.60
2018-04-29T10:52:13.690Z,4.20
2018-04-29T10:54:41.140Z,4.23
2018-04-29T10:57:08.589Z,4.80
2018-04-29T10:59:36.042Z,4.70
2018-04-29T11:02:03.493Z,4.33
2018-04-29T11:04:30.950Z,4.27
2018-04-29T11:06:59.158Z,4.20
2018-04-29T11:09:26.612Z,4.20
2018-04-29T11:11:54.078Z,4.30
2018-04-29T11:14:22.290Z,4.30
2018-04-29T11:16:51.317Z,4.40
2018-04-29T11:19:18.757Z,4.20
2018-04-29T11:21:46.990Z,4.37
2018-04-29T11:24:14.437Z,4.13
2018-04-29T11:26:41.886Z,4.00
2018-04-29T11:29:09.340Z,3.93
2018-04-29T11:31:36.785Z,4.00
2018-04-29T11:34:04.254Z,4.47
2018-04-29T11:36:31.705Z,4.10
2018-04-29T11:38:59.162Z,3.83
2018-04-29T11:41:26.616Z,4.33
2018-04-29T11:43:54.070Z,3.90
2018-04-29T11:46:21.534Z,3.90
2018-04-29T11:48:48.998Z,4.20
2018-04-29T11:51:16.462Z,3.50
2018-04-29T11:53:43.922Z,3.70
2018-04-29T11:56:11.378Z,3.80
2018-04-29T11:58:38.818Z,3.70
2018-04-29T12:01:12.026Z,3.70
2018-04-29T12:03:39.494Z,3.60
2018-04-29T12:06:06.948Z,4.40
2018-04-29T12:08:34.409Z,3.57
2018-04-29T12:11:01.875Z,4.03
2018-04-29T12:13:29.330Z,4.00
2018-04-29T12:15:56.781Z,4.10
2018-04-29T12:18:24.242Z,4.10
2018-04-29T12:20:51.702Z,3.70
2018-04-29T12:23:19.157Z,3.63
2018-04-29T12:25:46.606Z,3.80
2018-04-29T12:28:14.062Z,3.80
2018-04-29T12:30:41.525Z,3.87
2018-04-29T12:33:08.978Z,3.47
2018-04-29T12:35:36.430Z,3.93
2018-04-29T12:38:03.891Z,3.73
2018-04-29T12:40:31.337Z,3.57
2018-04-29T12:42:58.786Z,3.63
2018-04-29T12:45:26.242Z,3.83
2018-04-29T12:47:53.694Z,4.33
2018-04-29T12:50:21.162Z,3.80
2018-04-29T12:52:48.606Z,3.53
2018-04-29T12:55:16.058Z,3.37
2018-04-29T12:57:43.509Z,3.63
2018-04-29T13:00:11.060Z,4.00
2018-04-29T13:02:38.402Z,3.63
2018-04-29T13:05:05.854Z,3.37
2018-04-29T13:07:34.077Z,4.00
2018-04-29T13:10:01.515Z,3.90
2018-04-29T13:12:28.975Z,3.70
2018-04-29T13:14:56.418Z,4.00
2018-04-29T13:17:23.868Z,4.27
2018-04-29T13:19:51.326Z,3.83
2018-04-29T13:22:18.770Z,4.17
2018-04-29T13:24:46.987Z,3.93
2018-04-29T13:27:14.470Z,3.90
2018-04-29T13:29:41.982Z,3.63
2018-04-29T13:32:09.391Z,4.07
2018-04-29T13:34:36.844Z,3.80
2018-04-29T13:37:04.303Z,4.07
2018-04-29T13:39:31.746Z,4.23
2018-04-29T13:41:59.244Z,4.10
2018-04-29T13:44:26.655Z,5.00
2018-04-29T13:46:54.118Z,4.30
2018-04-29T13:49:21.565Z,3.80
2018-04-29T13:51:49.028Z,4.00
2018-04-29T13:54:16.485Z,4.50
2018-04-29T13:56:43.945Z,4.23
2018-04-29T13:59:11.415Z,4.87
2018-04-29T14:01:38.868Z,4.90
2018-04-29T14:04:06.326Z,4.53
2018-04-29T14:06:33.779Z,4.20
2018-04-29T14:09:01.227Z,4.20
2018-04-29T14:11:28.676Z,4.13
2018-04-29T14:13:56.126Z,4.07
2018-04-29T14:16:23.573Z,4.00
2018-04-29T14:18:51.037Z,3.90
2018-04-29T14:21:18.488Z,4.17
2018-04-29T14:23:45.947Z,4.27
2018-04-29T14:26:13.402Z,3.80
2018-04-29T14:28:40.857Z,4.30
2018-04-29T14:31:08.327Z,3.80
2018-04-29T14:33:35.782Z,3.50
2018-04-29T14:36:03.232Z,4.13
2018-04-29T14:38:30.681Z,4.00
2018-04-29T14:40:58.139Z,4.30
2018-04-29T14:43:25.594Z,4.20
2018-04-29T14:45:53.066Z,4.60
2018-04-29T14:48:20.513Z,4.07
2018-04-29T14:50:47.970Z,4.30
2018-04-29T14:53:15.437Z,4.07
2018-04-29T14:55:42.897Z,4.23
2018-04-29T14:58:10.358Z,4.13
2018-04-29T15:00:37.813Z,4.13
2018-04-29T15:03:05.273Z,4.13
2018-04-29T15:05:32.713Z,4.40
2018-04-29T15:08:00.169Z,4.10
2018-04-29T15:10:27.635Z,4.20
2018-04-29T15:12:55.085Z,4.00
2018-04-29T15:15:22.545Z,4.07
2018-04-29T15:17:50.030Z,4.10
2018-04-29T15:20:17.450Z,3.97
2018-04-29T15:22:44.907Z,4.20
2018-04-29T15:25:12.362Z,4.67
2018-04-29T15:27:39.817Z,3.90
2018-04-29T15:30:07.281Z,3.70
2018-04-29T15:32:34.735Z,3.97
2018-04-29T15:35:02.211Z,3.90
2018-04-29T15:37:29.668Z,4.40
2018-04-29T15:39:57.118Z,4.00
2018-04-29T15:42:24.565Z,4.20
2018-04-29T15:44:52.009Z,4.70
2018-04-29T15:47:19.470Z,4.23
2018-04-29T15:49:46.912Z,4.10
2018-04-29T15:52:14.620Z,4.70
2018-04-29T15:54:42.075Z,4.67
2018-04-29T15:57:09.533Z,4.37
2018-04-29T15:59:37.007Z,4.33
2018-04-29T16:02:04.470Z,4.83
2018-04-29T16:04:31.918Z,4.13
2018-04-29T16:06:59.362Z,3.97
2018-04-29T16:09:27.876Z,4.20
2018-04-29T16:11:56.090Z,4.03
2018-04-29T16:14:23.558Z,4.60
2018-04-29T16:16:51.065Z,4.53
2018-04-29T16:19:19.286Z,4.23
2018-04-29T16:21:46.746Z,4.00
2018-04-29T16:24:14.202Z,3.70
2018-04-29T16:26:41.663Z,3.60
2018-04-29T16:29:09.122Z,3.90
2018-04-29T16:31:36.588Z,4.60
2018-04-29T16:34:04.030Z,3.50
2018-04-29T16:36:31.482Z,3.50
2018-04-29T16:38:58.933Z,4.07
2018-04-29T16:41:26.380Z,3.50
2018-04-29T16:43:53.842Z,3.80
2018-04-29T16:46:21.299Z,3.37
2018-04-29T16:48:48.743Z,3.57
2018-04-29T16:51:16.191Z,3.67
2018-04-29T16:53:44.404Z,3.60
2018-04-29T16:56:11.855Z,3.43
2018-04-29T16:58:39.308Z,3.87
2018-04-29T17:01:06.772Z,3.93
2018-04-29T17:03:35.121Z,3.63
2018-04-29T17:06:02.572Z,3.40
2018-04-29T17:08:30.789Z,3.50
2018-04-29T17:10:58.258Z,3.77
2018-04-29T17:13:25.709Z,3.80
2018-04-29T17:15:53.713Z,3.27
2018-04-29T17:18:21.926Z,4.00
2018-04-29T17:20:49.377Z,3.95
2018-04-29T17:23:16.825Z,3.92
2018-04-29T17:25:44.295Z,3.75
2018-04-29T17:28:11.742Z,3.95
2018-04-29T17:30:39.187Z,4.25
2018-04-29T17:33:07.430Z,4.05
2018-04-29T17:35:34.871Z,4.10
2018-04-29T17:38:02.331Z,4.13
2018-04-29T17:40:29.776Z,4.13
2018-04-29T17:42:57.221Z,4.50
2018-04-29T17:45:24.671Z,4.03
2018-04-29T17:47:52.138Z,4.37
2018-04-29T17:50:19.579Z,4.23
2018-04-29T17:52:47.026Z,4.27
2018-04-29T17:55:14.493Z,4.73
2018-04-29T17:57:41.949Z,3.97
2018-04-29T18:00:09.418Z,4.27
2018-04-29T18:02:36.869Z,4.47
2018-04-29T18:05:04.319Z,4.10
2018-04-29T18:07:31.781Z,4.10
2018-04-29T18:09:59.222Z,3.93
2018-04-29T18:12:27.434Z,3.47
2018-04-29T18:14:54.881Z,3.20
2018-04-29T18:17:22.335Z,3.50
2018-04-29T18:19:49.781Z,3.17
2018-04-29T18:22:17.233Z,3.10
2018-04-29T18:24:44.684Z,3.27
2018-04-29T18:27:12.145Z,3.07
2018-04-29T18:29:39.598Z,3.40
2018-04-29T18:32:07.820Z,3.17
2018-04-29T18:34:35.274Z,3.60
2018-04-29T18:37:02.740Z,3.43
2018-04-29T18:39:30.189Z,3.47
2018-04-29T18:41:57.636Z,3.03
2018-04-29T18:44:25.859Z,3.30
2018-04-29T18:46:54.075Z,3.60
2018-04-29T18:49:21.530Z,3.30
2018-04-29T18:51:48.999Z,3.30
2018-04-29T18:54:16.479Z,3.13
2018-04-29T18:56:43.939Z,3.23
2018-04-29T18:59:11.386Z,3.30
2018-04-29T19:01:38.873Z,3.17
2018-04-29T19:04:07.106Z,3.50
2018-04-29T19:06:34.685Z,3.33
2018-04-29T19:09:02.169Z,3.63
2018-04-29T19:11:29.671Z,3.10
2018-04-29T19:13:57.109Z,3.40
2018-04-29T19:16:24.562Z,3.30
2018-04-29T19:18:52.029Z,3.33
2018-04-29T19:21:19.483Z,3.37
2018-04-29T19:23:46.947Z,3.53
2018-04-29T19:26:14.418Z,3.80
2018-04-29T19:28:41.870Z,3.20
2018-04-29T19:31:09.555Z,3.50
2018-04-29T19:33:37.797Z,3.57
2018-04-29T19:36:05.277Z,3.70
2018-04-29T19:38:32.755Z,3.50
2018-04-29T19:41:00.316Z,3.30
2018-04-29T19:43:27.814Z,3.30
2018-04-29T19:45:55.272Z,3.97
2018-04-29T19:48:23.528Z,3.87
2018-04-29T19:50:51.823Z,3.37
2018-04-29T19:53:19.318Z,3.30
2018-04-29T19:55:46.763Z,3.27
2018-04-29T19:58:14.217Z,3.47
2018-04-29T20:00:41.718Z,3.87
2018-04-29T20:03:09.204Z,3.73
2018-04-29T20:05:38.454Z,3.50
2018-04-29T20:08:05.947Z,3.60
2018-04-29T20:10:33.447Z,3.10
2018-04-29T20:13:00.885Z,3.70
2018-04-29T20:15:28.451Z,3.47
2018-04-29T20:17:55.979Z,3.93
2018-04-29T20:20:24.200Z,3.63
2018-04-29T20:22:51.653Z,3.50
2018-04-29T20:25:19.125Z,3.27
2018-04-29T20:27:46.576Z,3.50
2018-04-29T20:30:14.079Z,3.23
2018-04-29T20:32:45.208Z,4.47
2018-04-29T20:35:12.801Z,3.67
2018-04-29T20:37:41.144Z,3.63
2018-04-29T20:40:08.615Z,3.67
2018-04-29T20:42:36.863Z,3.77
2018-04-29T20:45:04.308Z,4.07
2018-04-29T20:47:31.882Z,4.00
2018-04-29T20:49:59.437Z,3.77
2018-04-29T20:52:26.890Z,3.70
2018-04-29T20:54:54.333Z,3.90
2018-04-29T20:57:21.799Z,4.10
2018-04-29T20:59:49.268Z,3.27
2018-04-29T21:02:16.751Z,3.50
2018-04-29T21:04:44.219Z,3.60
2018-04-29T21:07:12.446Z,3.47
2018-04-29T21:09:39.947Z,3.87
2018-04-29T21:12:08.164Z,3.83
2018-04-29T21:14:35.618Z,3.93
2018-04-29T21:17:03.078Z,7.33
2018-04-29T21:19:30.583Z,3.53
2018-04-29T21:21:58.040Z,3.10
2018-04-29T21:24:25.478Z,3.30
2018-04-29T21:26:52.921Z,3.43
2018-04-29T21:29:21.148Z,3.13
2018-04-29T21:31:49.371Z,3.57
2018-04-29T21:34:16.822Z,3.10
2018-04-29T21:36:44.274Z,3.10
2018-04-29T21:39:11.722Z,2.93
2018-04-29T21:41:39.190Z,3.10
2018-04-29T21:44:06.631Z,3.30
2018-04-29T21:46:34.084Z,3.23
2018-04-29T21:49:01.561Z,2.80
2018-04-29T21:51:29.014Z,3.37
2018-04-29T21:53:56.499Z,2.97
2018-04-29T21:56:24.744Z,2.60
2018-04-29T21:58:52.196Z,2.73
2018-04-29T22:01:19.634Z,2.77
2018-04-29T22:03:47.086Z,2.57
2018-04-29T22:06:15.301Z,2.33
2018-04-29T22:08:42.769Z,2.40
2018-04-29T22:11:10.219Z,2.40
2018-04-29T22:13:37.731Z,2.53
2018-04-29T22:16:05.205Z,2.67
2018-04-29T22:18:32.657Z,2.53
2018-04-29T22:21:00.104Z,2.70
2018-04-29T22:23:28.327Z,2.60
2018-04-29T22:25:55.788Z,2.20
2018-04-29T22:28:23.237Z,2.20
2018-04-29T22:30:50.693Z,2.50
2018-04-29T22:33:18.149Z,2.20
2018-04-29T22:35:45.606Z,2.33
2018-04-29T22:38:13.051Z,2.50
2018-04-29T22:40:40.502Z,2.30
2018-04-29T22:43:07.954Z,2.30
2018-04-29T22:45:35.398Z,2.77
2018-04-29T22:48:02.862Z,2.50
2018-04-29T22:50:30.314Z,2.50
2018-04-29T22:52:57.766Z,2.73
2018-04-29T22:55:25.205Z,2.67
2018-04-29T22:57:53.435Z,2.30
2018-04-29T23:00:20.877Z,2.10
2018-04-29T23:02:48.351Z,2.43
2018-04-29T23:05:15.803Z,2.60
2018-04-29T23:07:43.270Z,2.47
2018-04-29T23:10:10.718Z,2.67
2018-04-29T23:12:38.165Z,3.20
2018-04-29T23:15:05.621Z,2.70
2018-04-29T23:17:33.091Z,2.70
2018-04-29T23:20:00.538Z,2.50
2018-04-29T23:22:28.000Z,2.23
2018-04-29T23:24:55.462Z,2.77
2018-04-29T23:27:22.905Z,2.57
2018-04-29T23:29:50.345Z,2.63
2018-04-29T23:32:17.797Z,2.60
2018-04-29T23:34:45.259Z,3.07
2018-04-29T23:37:12.709Z,2.70
2018-04-29T23:39:40.150Z,2.90
2018-04-29T23:42:08.373Z,2.67
2018-04-29T23:44:35.829Z,2.97
2018-04-29T23:47:03.277Z,2.70
2018-04-29T23:49:30.730Z,2.90
2018-04-29T23:51:58.182Z,2.50
2018-04-29T23:54:25.633Z,2.70
2018-04-29T23:56:53.077Z,3.10
2018-04-29T23:59:20.534Z,3.03
